createdAt,value
2017-11-18T00:00:33.298Z,16.47
2017-11-18T00:03:00.771Z,16.30
2017-11-18T00:05:28.238Z,17.70
2017-11-18T00:07:55.700Z,17.73
2017-11-18T00:10:23.219Z,13.73
2017-11-18T00:15:26.014Z,16.00
2017-11-18T00:17:53.475Z,13.20
2017-11-18T00:20:20.938Z,13.00
2017-11-18T00:22:48.386Z,13.43
2017-11-18T00:25:15.851Z,16.90
2017-11-18T00:27:43.304Z,12.83
2017-11-18T00:30:10.758Z,13.30
2017-11-18T00:32:38.219Z,11.80
2017-11-18T00:35:05.676Z,12.77
2017-11-18T00:37:33.132Z,10.40
2017-11-18T00:40:01.379Z,12.97
2017-11-18T00:42:28.826Z,12.73
2017-11-18T00:44:56.275Z,10.90
2017-11-18T00:47:24.499Z,12.07
2017-11-18T00:49:51.971Z,11.53
2017-11-18T00:52:19.422Z,10.83
2017-11-18T00:54:46.883Z,8.60
2017-11-18T00:57:14.341Z,10.60
2017-11-18T00:59:41.817Z,10.97
2017-11-18T01:02:09.259Z,9.97
2017-11-18T01:04:37.483Z,9.13
2017-11-18T01:07:04.979Z,6.97
2017-11-18T01:09:32.450Z,11.67
2017-11-18T01:11:59.910Z,9.27
2017-11-18T01:14:27.358Z,13.30
2017-11-18T01:16:54.818Z,10.30
2017-11-18T01:19:22.277Z,8.43
2017-11-18T01:21:49.730Z,9.37
2017-11-18T01:24:17.955Z,8.07
2017-11-18T01:26:46.196Z,9.60
2017-11-18T01:29:13.713Z,10.37
2017-11-18T01:31:41.919Z,7.87
2017-11-18T01:34:09.379Z,7.20
2017-11-18T01:36:36.852Z,12.57
2017-11-18T01:39:04.307Z,8.20
2017-11-18T01:41:31.787Z,8.87
2017-11-18T01:43:59.247Z,7.20
2017-11-18T01:46:26.705Z,7.30
2017-11-18T01:48:54.158Z,6.93
2017-11-18T01:51:22.376Z,7.47
2017-11-18T01:53:49.834Z,7.10
2017-11-18T01:56:17.308Z,8.73
2017-11-18T01:58:44.758Z,7.17
2017-11-18T02:01:12.215Z,8.47
2017-11-18T02:03:39.683Z,6.13
2017-11-18T02:06:07.903Z,6.77
2017-11-18T02:08:35.365Z,5.40
2017-11-18T02:11:02.802Z,5.63
2017-11-18T02:13:31.028Z,6.87
2017-11-18T02:15:58.477Z,5.70
2017-11-18T02:18:25.939Z,5.73
2017-11-18T02:20:53.399Z,7.10
2017-11-18T02:23:20.854Z,7.70
2017-11-18T02:25:49.067Z,6.23
2017-11-18T02:28:17.305Z,7.47
2017-11-18T02:30:45.527Z,4.80
2017-11-18T02:33:13.771Z,5.30
2017-11-18T02:35:41.227Z,7.93
2017-11-18T02:38:08.732Z,7.57
2017-11-18T02:40:36.951Z,5.87
2017-11-18T02:43:04.416Z,4.83
2017-11-18T02:45:31.861Z,5.17
2017-11-18T02:47:59.325Z,5.83
2017-11-18T02:50:26.775Z,5.97
2017-11-18T02:52:54.236Z,6.57
2017-11-18T02:55:21.691Z,6.17
2017-11-18T02:57:49.930Z,5.10
2017-11-18T03:00:18.142Z,5.40
2017-11-18T03:02:45.600Z,4.07
2017-11-18T03:05:13.058Z,5.23
2017-11-18T03:07:40.514Z,3.83
2017-11-18T03:10:07.971Z,5.60
2017-11-18T03:12:35.422Z,4.20
2017-11-18T03:15:02.898Z,4.20
2017-11-18T03:17:30.349Z,4.47
2017-11-18T03:19:57.823Z,4.10
2017-11-18T03:22:25.288Z,4.40
2017-11-18T03:24:52.750Z,8.23
2017-11-18T03:27:20.202Z,3.83
2017-11-18T03:29:48.419Z,4.40
2017-11-18T03:32:15.885Z,3.57
2017-11-18T03:34:43.331Z,4.93
2017-11-18T03:37:10.787Z,3.93
2017-11-18T03:39:38.244Z,4.63
2017-11-18T03:42:05.696Z,3.70
2017-11-18T03:44:33.914Z,3.47
2017-11-18T03:47:01.376Z,6.10
2017-11-18T03:49:28.829Z,3.40
2017-11-18T03:51:56.286Z,3.20
2017-11-18T03:54:23.761Z,4.03
2017-11-18T03:56:51.222Z,3.40
2017-11-18T03:59:20.223Z,3.90
2017-11-18T04:01:47.674Z,3.70
2017-11-18T04:04:15.147Z,4.33
2017-11-18T04:06:43.382Z,4.80
2017-11-18T04:09:10.855Z,4.77
2017-11-18T04:11:39.079Z,5.43
2017-11-18T04:14:06.528Z,7.10
2017-11-18T04:16:34.760Z,4.13
2017-11-18T04:19:02.223Z,3.13
2017-11-18T04:21:29.699Z,6.03
2017-11-18T04:23:57.908Z,4.77
2017-11-18T04:26:25.358Z,3.40
2017-11-18T04:28:52.820Z,3.87
2017-11-18T04:31:20.291Z,5.93
2017-11-18T04:33:47.735Z,3.53
2017-11-18T04:36:15.980Z,2.90
2017-11-18T04:38:43.435Z,4.40
2017-11-18T04:41:11.659Z,3.00
2017-11-18T04:43:39.123Z,5.70
2017-11-18T04:46:06.601Z,2.80
2017-11-18T04:48:34.058Z,3.37
2017-11-18T04:51:02.334Z,5.00
2017-11-18T04:53:29.767Z,4.07
2017-11-18T04:55:58.004Z,4.00
2017-11-18T04:58:25.467Z,3.70
2017-11-18T05:00:52.927Z,4.10
2017-11-18T05:03:20.376Z,6.37
2017-11-18T05:05:48.590Z,5.00
2017-11-18T05:08:16.054Z,6.80
2017-11-18T05:10:44.272Z,4.10
2017-11-18T05:13:12.507Z,3.77
2017-11-18T05:15:39.976Z,2.43
2017-11-18T05:18:07.422Z,3.50
2017-11-18T05:20:34.884Z,3.70
2017-11-18T05:23:02.356Z,4.73
2017-11-18T05:25:29.804Z,4.77
2017-11-18T05:27:57.299Z,2.70
2017-11-18T05:30:25.519Z,3.20
2017-11-18T05:32:52.995Z,4.00
2017-11-18T05:35:20.465Z,3.50
2017-11-18T05:37:47.912Z,3.40
2017-11-18T05:40:15.368Z,2.73
2017-11-18T05:42:43.597Z,2.23
2017-11-18T05:45:11.823Z,3.03
2017-11-18T05:47:39.308Z,2.87
2017-11-18T05:50:07.541Z,7.30
2017-11-18T05:52:35.011Z,2.53
2017-11-18T05:55:02.472Z,3.47
2017-11-18T05:57:29.962Z,5.13
2017-11-18T05:59:57.415Z,2.70
2017-11-18T06:02:25.651Z,3.93
2017-11-18T06:04:53.114Z,3.90
2017-11-18T06:07:20.575Z,3.33
2017-11-18T06:09:48.058Z,3.33
2017-11-18T06:12:16.299Z,3.43
2017-11-18T06:14:43.772Z,7.80
2017-11-18T06:17:11.250Z,3.20
2017-11-18T06:19:38.706Z,3.00
2017-11-18T06:22:06.163Z,5.80
2017-11-18T06:24:34.395Z,2.97
2017-11-18T06:27:01.860Z,4.23
2017-11-18T06:29:29.327Z,3.77
2017-11-18T06:31:57.542Z,4.27
2017-11-18T06:34:25.774Z,3.50
2017-11-18T06:36:53.983Z,4.07
2017-11-18T06:39:22.222Z,4.00
2017-11-18T06:41:49.679Z,2.73
2017-11-18T06:44:17.166Z,2.97
2017-11-18T06:46:44.630Z,3.57
2017-11-18T06:49:12.876Z,3.23
2017-11-18T06:51:40.327Z,3.00
2017-11-18T06:54:07.792Z,4.77
2017-11-18T06:56:35.259Z,5.47
2017-11-18T06:59:02.734Z,3.07
2017-11-18T07:01:30.186Z,4.80
2017-11-18T07:03:57.631Z,4.53
2017-11-18T07:06:25.095Z,4.50
2017-11-18T07:08:52.544Z,7.60
2017-11-18T07:11:20.002Z,2.90
2017-11-18T07:13:47.470Z,3.50
2017-11-18T07:16:15.710Z,3.50
2017-11-18T07:18:43.196Z,2.90
2017-11-18T07:21:10.659Z,4.17
2017-11-18T07:23:38.884Z,4.10
2017-11-18T07:26:06.343Z,2.73
2017-11-18T07:28:33.865Z,3.17
2017-11-18T07:31:02.108Z,4.00
2017-11-18T07:33:30.355Z,3.10
2017-11-18T07:35:57.871Z,7.23
2017-11-18T07:38:26.104Z,3.97
2017-11-18T07:40:54.324Z,4.83
2017-11-18T07:43:22.538Z,5.47
2017-11-18T07:45:50.023Z,4.07
2017-11-18T07:48:17.481Z,2.70
2017-11-18T07:50:45.692Z,3.37
2017-11-18T07:53:13.927Z,2.50
2017-11-18T07:55:42.138Z,5.97
2017-11-18T07:58:09.679Z,3.30
2017-11-18T08:00:37.126Z,3.33
2017-11-18T08:03:04.589Z,2.43
2017-11-18T08:05:32.051Z,4.40
2017-11-18T08:07:59.516Z,5.10
2017-11-18T08:10:26.959Z,4.07
2017-11-18T08:12:54.512Z,4.47
2017-11-18T08:15:21.987Z,3.73
2017-11-18T08:17:49.446Z,3.27
2017-11-18T08:20:16.909Z,2.30
2017-11-18T08:22:45.155Z,3.70
2017-11-18T08:25:12.607Z,4.90
2017-11-18T08:27:40.092Z,4.70
2017-11-18T08:30:08.319Z,4.67
2017-11-18T08:32:35.791Z,4.60
2017-11-18T08:35:03.254Z,2.40
2017-11-18T08:37:30.715Z,3.67
2017-11-18T08:39:58.924Z,2.27
2017-11-18T08:42:27.173Z,3.40
2017-11-18T08:44:54.623Z,3.43
2017-11-18T08:47:22.106Z,3.37
2017-11-18T08:49:49.550Z,4.17
2017-11-18T08:52:17.031Z,2.97
2017-11-18T08:54:45.291Z,2.83
2017-11-18T08:57:12.738Z,4.87
2017-11-18T08:59:40.210Z,3.67
2017-11-18T09:02:07.650Z,5.13
2017-11-18T09:04:35.119Z,2.97
2017-11-18T09:07:02.566Z,4.23
2017-11-18T09:09:30.027Z,3.80
2017-11-18T09:11:57.478Z,2.53
2017-11-18T09:14:24.935Z,4.23
2017-11-18T09:16:52.412Z,2.70
2017-11-18T09:19:19.864Z,3.40
2017-11-18T09:21:48.094Z,3.83
2017-11-18T09:24:15.559Z,6.30
2017-11-18T09:26:43.020Z,4.07
2017-11-18T09:29:10.482Z,2.70
2017-11-18T09:31:37.939Z,5.13
2017-11-18T09:34:05.411Z,3.63
2017-11-18T09:36:32.851Z,7.43
2017-11-18T09:39:00.328Z,4.20
2017-11-18T09:41:27.783Z,4.80
2017-11-18T09:43:55.244Z,3.13
2017-11-18T09:46:22.703Z,2.20
2017-11-18T09:48:50.911Z,3.47
2017-11-18T09:51:19.160Z,12.50
2017-11-18T09:53:46.615Z,3.97
2017-11-18T09:56:14.067Z,2.57
2017-11-18T09:58:41.522Z,3.70
2017-11-18T10:01:08.991Z,2.90
2017-11-18T10:03:37.244Z,3.13
2017-11-18T10:06:04.726Z,10.20
2017-11-18T10:08:32.176Z,3.50
2017-11-18T10:11:00.403Z,3.13
2017-11-18T10:13:27.876Z,3.50
2017-11-18T10:15:55.342Z,4.00
2017-11-18T10:18:22.809Z,4.30
2017-11-18T10:20:50.290Z,2.70
2017-11-18T10:23:17.804Z,2.77
2017-11-18T10:25:46.032Z,3.20
2017-11-18T10:28:13.478Z,4.23
2017-11-18T10:30:40.931Z,2.97
2017-11-18T10:33:11.681Z,3.40
2017-11-18T10:35:39.933Z,3.47
2017-11-18T10:38:07.388Z,3.10
2017-11-18T10:40:34.883Z,3.43
2017-11-18T10:43:03.106Z,5.50
2017-11-18T10:45:30.563Z,6.43
2017-11-18T10:47:58.023Z,5.03
2017-11-18T10:50:25.481Z,5.27
2017-11-18T10:52:52.934Z,5.00
2017-11-18T10:55:20.383Z,4.10
2017-11-18T10:57:47.843Z,3.13
2017-11-18T11:00:15.287Z,5.67
2017-11-18T11:02:42.743Z,6.30
2017-11-18T11:05:10.203Z,4.97
2017-11-18T11:07:37.655Z,5.40
2017-11-18T11:10:05.107Z,6.17
2017-11-18T11:12:32.631Z,5.93
2017-11-18T11:15:00.084Z,3.50
2017-11-18T11:17:27.535Z,4.50
2017-11-18T11:19:54.980Z,3.80
2017-11-18T11:22:22.456Z,2.33
2017-11-18T11:24:49.902Z,5.00
2017-11-18T11:27:17.363Z,6.37
2017-11-18T11:29:44.839Z,4.17
2017-11-18T11:32:13.055Z,5.57
2017-11-18T11:34:40.515Z,6.30
2017-11-18T11:37:08.027Z,3.40
2017-11-18T11:39:35.476Z,1.93
2017-11-18T11:42:02.935Z,4.30
2017-11-18T11:44:30.387Z,2.93
2017-11-18T11:46:57.852Z,3.63
2017-11-18T11:49:25.311Z,3.13
2017-11-18T11:51:52.767Z,4.40
2017-11-18T11:54:20.230Z,5.60
2017-11-18T11:56:47.678Z,5.00
2017-11-18T11:59:15.140Z,5.80
2017-11-18T12:01:42.583Z,4.87
2017-11-18T12:04:10.817Z,4.90
2017-11-18T12:06:38.269Z,3.43
2017-11-18T12:09:05.727Z,4.07
2017-11-18T12:11:33.938Z,4.87
2017-11-18T12:14:01.398Z,3.67
2017-11-18T12:16:28.867Z,3.90
2017-11-18T12:18:56.345Z,5.53
2017-11-18T12:21:24.573Z,5.90
2017-11-18T12:23:52.036Z,4.80
2017-11-18T12:26:19.491Z,4.07
2017-11-18T12:28:46.968Z,5.37
2017-11-18T12:31:14.422Z,5.07
2017-11-18T12:33:41.888Z,4.60
2017-11-18T12:36:10.128Z,4.33
2017-11-18T12:38:38.331Z,3.23
2017-11-18T12:41:05.810Z,4.73
2017-11-18T12:43:34.043Z,4.63
2017-11-18T12:46:02.328Z,3.60
2017-11-18T12:48:29.785Z,6.33
2017-11-18T12:50:57.263Z,4.57
2017-11-18T12:53:24.715Z,3.30
2017-11-18T12:55:52.183Z,3.67
2017-11-18T12:58:19.656Z,2.97
2017-11-18T13:00:47.890Z,4.30
2017-11-18T13:03:15.351Z,2.90
2017-11-18T13:05:42.815Z,4.60
2017-11-18T13:08:10.272Z,2.90
2017-11-18T13:10:37.824Z,2.40
2017-11-18T13:13:06.026Z,2.57
2017-11-18T13:15:33.499Z,2.80
2017-11-18T13:18:00.945Z,3.97
2017-11-18T13:20:30.226Z,2.77
2017-11-18T13:23:05.987Z,3.37
2017-11-18T13:25:33.495Z,2.80
2017-11-18T13:28:00.967Z,2.97
2017-11-18T13:30:28.422Z,3.53
2017-11-18T13:32:55.900Z,2.53
2017-11-18T13:35:24.341Z,2.73
2017-11-18T13:37:52.111Z,2.23
2017-11-18T13:40:19.558Z,3.93
2017-11-18T13:42:47.031Z,2.40
2017-11-18T13:45:14.489Z,3.17
2017-11-18T13:47:44.411Z,2.57
2017-11-18T13:50:11.900Z,3.13
2017-11-18T13:52:39.727Z,4.90
2017-11-18T13:55:10.111Z,2.23
2017-11-18T13:57:38.339Z,2.07
2017-11-18T14:00:07.430Z,2.60
2017-11-18T14:02:35.203Z,2.23
2017-11-18T14:05:02.680Z,1.90
2017-11-18T14:07:30.700Z,3.90
2017-11-18T14:09:58.192Z,2.73
2017-11-18T14:12:25.659Z,2.43
2017-11-18T14:14:53.126Z,3.77
2017-11-18T14:17:20.586Z,5.20
2017-11-18T14:19:48.030Z,6.13
2017-11-18T14:22:15.475Z,5.60
2017-11-18T14:24:43.902Z,5.20
2017-11-18T14:27:13.946Z,7.27
2017-11-18T14:29:42.212Z,5.23
2017-11-18T14:32:09.695Z,8.40
2017-11-18T14:34:37.167Z,7.57
2017-11-18T14:37:04.638Z,5.70
2017-11-18T14:39:32.886Z,6.40
2017-11-18T14:42:00.340Z,7.97
2017-11-18T14:44:27.794Z,5.00
2017-11-18T14:46:55.287Z,7.80
2017-11-18T14:49:23.551Z,6.90
2017-11-18T14:51:51.006Z,6.93
2017-11-18T14:54:18.459Z,6.50
2017-11-18T14:56:45.935Z,5.57
2017-11-18T14:59:13.391Z,7.73
2017-11-18T15:01:41.611Z,6.10
2017-11-18T15:04:09.838Z,7.53
2017-11-18T15:06:37.322Z,7.80
2017-11-18T15:09:04.862Z,12.00
2017-11-18T15:11:32.322Z,5.53
2017-11-18T15:13:59.782Z,8.00
2017-11-18T15:19:45.787Z,5.87
2017-11-18T15:22:15.681Z,9.80
2017-11-18T15:24:48.692Z,5.20
2017-11-18T15:27:21.824Z,4.20
2017-11-18T15:29:55.151Z,6.13
2017-11-18T15:32:38.257Z,5.33
2017-11-18T15:38:33.980Z,5.30
2017-11-18T15:41:02.207Z,5.10
2017-11-18T15:43:31.351Z,7.40
2017-11-18T15:46:01.115Z,6.93
2017-11-18T15:48:34.105Z,6.60
2017-11-18T15:51:07.194Z,8.67
2017-11-18T15:53:41.711Z,9.07
2017-11-18T15:59:10.734Z,8.53
2017-11-18T16:01:43.767Z,10.53
2017-11-18T16:04:18.801Z,11.03
2017-11-18T16:09:47.711Z,11.63
2017-11-18T16:12:15.191Z,12.13
2017-11-18T16:14:42.655Z,10.70
2017-11-18T16:17:10.134Z,11.80
2017-11-18T16:19:37.591Z,14.43
2017-11-18T16:22:05.049Z,9.80
2017-11-18T16:24:32.508Z,12.23
2017-11-18T16:26:59.950Z,8.80
2017-11-18T16:29:27.419Z,9.00
2017-11-18T16:31:54.888Z,10.53
2017-11-18T16:34:22.384Z,11.80
2017-11-18T16:36:50.621Z,10.40
2017-11-18T16:39:18.079Z,9.80
2017-11-18T16:41:45.539Z,7.60
2017-11-18T16:44:12.993Z,12.13
2017-11-18T16:46:40.463Z,10.77
2017-11-18T16:49:08.688Z,8.77
2017-11-18T16:51:36.175Z,10.40
2017-11-18T16:54:04.456Z,8.23
2017-11-18T16:56:31.915Z,9.53
2017-11-18T16:59:00.131Z,8.33
2017-11-18T17:01:28.348Z,7.40
2017-11-18T17:03:55.821Z,7.97
2017-11-18T17:06:24.111Z,7.60
2017-11-18T17:08:51.575Z,5.70
2017-11-18T17:11:19.934Z,7.50
2017-11-18T17:13:47.415Z,11.67
2017-11-18T17:16:14.871Z,6.80
2017-11-18T17:18:42.345Z,6.67
2017-11-18T17:21:10.556Z,7.97
2017-11-18T17:23:38.038Z,6.90
2017-11-18T17:28:56.906Z,7.07
2017-11-18T17:31:24.772Z,5.97
2017-11-18T17:33:52.259Z,6.43
2017-11-18T17:36:19.831Z,7.87
2017-11-18T17:38:48.503Z,6.87
2017-11-18T17:41:16.852Z,5.23
2017-11-18T17:43:44.408Z,6.97
2017-11-18T17:46:11.871Z,6.47
2017-11-18T17:48:39.327Z,4.77
2017-11-18T17:51:07.556Z,7.40
2017-11-18T17:53:35.030Z,8.50
2017-11-18T17:56:02.466Z,7.60
2017-11-18T17:58:30.856Z,6.93
2017-11-18T18:00:58.332Z,4.10
2017-11-18T18:03:25.812Z,6.33
2017-11-18T18:05:53.275Z,4.67
2017-11-18T18:08:20.777Z,8.13
2017-11-18T18:10:49.051Z,7.87
2017-11-18T18:13:16.550Z,3.87
2017-11-18T18:15:44.792Z,4.30
2017-11-18T18:18:13.017Z,6.90
2017-11-18T18:20:41.238Z,6.63
2017-11-18T18:23:09.501Z,9.00
2017-11-18T18:25:37.726Z,6.63
2017-11-18T18:28:05.194Z,5.60
2017-11-18T18:30:32.641Z,4.63
2017-11-18T18:33:00.889Z,5.77
2017-11-18T18:35:28.336Z,3.40
2017-11-18T18:37:56.558Z,4.50
2017-11-18T18:40:24.022Z,5.77
2017-11-18T18:42:52.247Z,3.27
2017-11-18T18:45:21.161Z,5.10
2017-11-18T18:47:49.376Z,5.43
2017-11-18T18:50:16.840Z,6.27
2017-11-18T18:52:44.298Z,7.30
2017-11-18T18:55:12.554Z,6.00
2017-11-18T18:57:40.012Z,6.43
2017-11-18T19:00:07.497Z,9.20
2017-11-18T19:02:34.948Z,4.03
2017-11-18T19:05:02.407Z,4.60
2017-11-18T19:07:29.851Z,5.63
2017-11-18T19:09:57.308Z,6.97
2017-11-18T19:12:24.752Z,6.40
2017-11-18T19:14:52.212Z,7.80
2017-11-18T19:17:19.676Z,7.93
2017-11-18T19:19:47.140Z,7.33
2017-11-18T19:22:14.588Z,10.30
2017-11-18T19:24:42.827Z,13.03
2017-11-18T19:27:10.303Z,11.83
2017-11-18T19:29:37.755Z,14.30
2017-11-18T19:32:05.231Z,15.17
2017-11-18T19:34:32.702Z,13.90
2017-11-18T19:37:00.163Z,15.00
2017-11-18T19:39:28.448Z,14.40
2017-11-18T19:41:55.923Z,16.53
2017-11-18T19:44:24.149Z,17.97
2017-11-18T19:46:51.672Z,16.93
2017-11-18T19:49:19.141Z,17.60
2017-11-18T19:51:46.620Z,16.07
2017-11-18T19:54:14.849Z,18.60
2017-11-18T19:56:43.071Z,15.47
2017-11-18T19:59:10.544Z,14.33
2017-11-18T20:01:38.007Z,16.20
2017-11-18T20:04:05.466Z,18.57
2017-11-18T20:06:32.948Z,15.00
2017-11-18T20:09:01.183Z,13.80
2017-11-18T20:11:28.662Z,14.60
2017-11-18T20:13:56.103Z,12.10
2017-11-18T20:16:24.342Z,15.17
2017-11-18T20:18:51.831Z,10.17
2017-11-18T20:21:19.303Z,13.97
2017-11-18T20:23:46.751Z,15.57
2017-11-18T20:26:14.216Z,13.37
2017-11-18T20:28:41.663Z,12.80
2017-11-18T20:31:09.138Z,11.30
2017-11-18T20:33:36.626Z,13.57
2017-11-18T20:36:04.844Z,11.40
2017-11-18T20:38:32.323Z,12.90
2017-11-18T20:40:59.781Z,12.10
2017-11-18T20:43:28.019Z,13.67
2017-11-18T20:45:55.492Z,12.40
2017-11-18T20:48:23.731Z,10.30
2017-11-18T20:50:51.186Z,13.50
2017-11-18T20:53:18.657Z,11.20
2017-11-18T20:55:46.110Z,12.60
2017-11-18T20:58:13.612Z,11.30
2017-11-18T21:00:41.071Z,12.50
2017-11-18T21:03:08.565Z,9.43
2017-11-18T21:05:36.799Z,9.20
2017-11-18T21:08:04.272Z,9.67
2017-11-18T21:10:32.507Z,9.83
2017-11-18T21:12:59.979Z,12.77
2017-11-18T21:15:28.190Z,9.57
2017-11-18T21:17:55.667Z,11.60
2017-11-18T21:20:23.892Z,8.40
2017-11-18T21:22:51.348Z,8.67
2017-11-18T21:25:18.810Z,10.17
2017-11-18T21:27:46.258Z,8.87
2017-11-18T21:30:13.719Z,7.93
2017-11-18T21:32:41.963Z,10.00
2017-11-18T21:35:09.446Z,7.87
2017-11-18T21:37:36.904Z,7.67
2017-11-18T21:40:04.371Z,8.33
2017-11-18T21:42:31.831Z,7.00
2017-11-18T21:44:59.279Z,9.90
2017-11-18T21:47:26.739Z,9.40
2017-11-18T21:49:54.980Z,7.00
2017-11-18T21:52:23.199Z,10.70
2017-11-18T21:54:50.661Z,8.80
2017-11-18T21:57:18.912Z,10.23
2017-11-18T21:59:46.372Z,11.60
2017-11-18T22:02:13.843Z,16.50
2017-11-18T22:04:41.300Z,15.13
2017-11-18T22:07:09.535Z,15.43
2017-11-18T22:09:37.007Z,18.67
2017-11-18T22:12:04.487Z,12.53
2017-11-18T22:14:31.952Z,17.93
2017-11-18T22:16:59.415Z,16.43
2017-11-18T22:19:27.638Z,13.83
2017-11-18T22:21:55.099Z,15.97
2017-11-18T22:24:22.608Z,13.87
2017-11-18T22:26:50.832Z,15.20
2017-11-18T22:29:18.313Z,14.73
2017-11-18T22:31:45.771Z,12.80
2017-11-18T22:34:13.240Z,15.77
2017-11-18T22:36:40.696Z,13.87
2017-11-18T22:39:08.938Z,10.60
2017-11-18T22:41:36.393Z,13.63
2017-11-18T22:44:03.902Z,16.07
2017-11-18T22:46:31.337Z,14.13
2017-11-18T22:48:58.824Z,11.40
2017-11-18T22:51:26.301Z,13.17
2017-11-18T22:53:53.760Z,14.23
2017-11-18T22:56:22.031Z,15.23
2017-11-18T22:58:50.258Z,14.20
2017-11-18T23:01:17.711Z,12.23
2017-11-18T23:03:45.168Z,12.90
2017-11-18T23:06:12.633Z,14.87
2017-11-18T23:08:40.092Z,12.03
2017-11-18T23:11:07.594Z,11.80
2017-11-18T23:13:35.048Z,12.53
2017-11-18T23:16:02.508Z,10.93
2017-11-18T23:18:29.961Z,9.63
2017-11-18T23:20:57.423Z,9.07
2017-11-18T23:23:24.883Z,14.00
2017-11-18T23:25:52.355Z,9.90
2017-11-18T23:28:20.581Z,12.33
2017-11-18T23:30:48.039Z,10.27
2017-11-18T23:33:15.498Z,13.97
2017-11-18T23:35:43.038Z,9.23
2017-11-18T23:38:10.520Z,8.90
2017-11-18T23:40:38.029Z,12.70
2017-11-18T23:43:05.540Z,12.53
2017-11-18T23:45:32.987Z,9.07
2017-11-18T23:48:00.448Z,9.87
2017-11-18T23:50:27.898Z,8.00
2017-11-18T23:52:55.354Z,8.90
2017-11-18T23:55:22.810Z,6.17
2017-11-18T23:57:51.038Z,10.23
